Adams Field
KLIT : rendu visible

Aérodrome :











RETROUVEZ-NOUS SUR...

 
LOGIN :

S'inscrire | Disclaimer

   EN    FR    IT 

 









Légende :    VFR   VFR Marginal   IFR   IFR Intensif   IFR Très Intensif
Visi : 
Plafond : 
>= 8 km
>= 3000ft
5 à 8 km
1000 à 3000 ft
1500m à 5 km
500 à 1000 ft
800 à 1500m
200 à 500 ft
< 800m
< 200 ft
Symboles :   Orages  Brouillard  Fortes neiges  Fortes précipitations  Vent > 20 kt






- Altitude de l'aérodrome : 262 ft
- Code IATA : LIT


KLIT - Adams Field

DERNIER METAR :
  • 271253Z 00000KT 10SM FEW010 OVC120 19/18 A2987 RMK AO2 RAB22E35 SLP114 BINOVC S P0000 T01940183

METARs EXPIRÉS :
  • 271153Z 00000KT 10SM BKN100 19/18 A2985 RMK AO2 RAE30 SLP108 P0000 60000 T01890183 10194 20183 55002
  • 271053Z 07003KT 10SM -RA SCT090 BKN110 19/18 A2985 RMK AO2 LTG DSNT E SLP107 P0000 T01890183

TAF KLIT
Valide du 27 à 12h jusqu'au 28 à 12h UTC


271120Z 2712/2812 VRB03KT 6SM BR VCSH SCT030 BKN060
TEMPO 2712/2716 4SM TSRA BR BKN025CB
FM271800 17006KT P6SM VCTS BKN040CB
FM280300 VRB03KT P6SM VCSH BKN015 OVC025
PROB30 2803/2809 TSRA BKN015CB
FIR KZME / Amérique du Nord



MET'MAP, la Météo Aéronautique d'un coup d'oeil ! - Copyright ORBIFLY Décembre 2007 - Disclaimer

ORBIFLY MET'MAP TEAM :

Programmation & Développement : Alexandra Zaïnal
Sur une idée originale de : Baudouin d'Aumeries
Assistance à la programmation : Marc-Olivier Méhu
Soutien technique & logistique : Manuel Goepfert

Contact : metmap@orbifly.com




SOURCES & CREDITS :

   NOAA       Earth
Advisory